Terminal Aerodrome Forecast
Issued by NWS Atlanta, GA

Home | Current Version | Previous Version | Text Only | Print | Product List | Glossary On
Versions: 1 2 3 4 5 6 7 8 9 10 11 12 13 14 15 16
318
FTUS42 KFFC 222324
TAFMCN
TAF
KMCN 222324Z 2300/2324 06006KT P6SM VCSH SCT050
     FM230200 05003KT P6SM FEW060 SCT150
     FM231600 08009KT P6SM FEW045=

USA.gov is the U.S. government's official web portal to all federal, state and local government web resources and services.